Time;durP1;ratioP1;P1;durP2;ratioP2;P2;SDS_P1;SDS_P2;PMS_P1;PMS_P2;Temp;Humidity;BMP_temperature;BMP_pressure;BME280_temperature;BME280_humidity;BME280_pressure;Samples;Min_cycle;Max_cycle;Signal;HPM_P1;HPM_P2
2024/01/20 00:02:09;;;;;;;37.88;21.15;;;-0.40;99.90;;;;;;5101058;28;20020;-35
2024/01/20 00:04:34;;;;;;;43.85;23.75;;;-0.40;99.90;;;;;;5100580;28;20672;-37
2024/01/20 00:07:00;;;;;;;42.05;22.90;;;-0.40;99.90;;;;;;5098656;28;20059;-36
2024/01/20 00:09:26;;;;;;;38.85;21.20;;;-0.40;99.90;;;;;;5099716;28;20019;-34
2024/01/20 00:11:54;;;;;;;41.63;21.95;;;-0.40;99.90;;;;;;5100694;28;20511;-39
2024/01/20 00:14:19;;;;;;;40.38;20.85;;;-0.40;99.90;;;;;;5101564;28;20027;-37
2024/01/20 00:16:45;;;;;;;43.72;22.83;;;-0.40;99.90;;;;;;5099987;28;20477;-32
2024/01/20 00:19:11;;;;;;;42.85;22.48;;;-0.40;99.90;;;;;;5100269;28;20036;-32
2024/01/20 00:21:38;;;;;;;36.45;20.92;;;-0.40;99.90;;;;;;5100466;28;20024;-33
2024/01/20 00:24:04;;;;;;;39.70;21.58;;;-0.40;99.90;;;;;;5100095;28;20032;-36
2024/01/20 00:26:29;;;;;;;47.60;23.08;;;-0.40;99.90;;;;;;5100811;28;20087;-37
2024/01/20 00:28:55;;;;;;;42.20;23.20;;;-0.40;99.90;;;;;;5099870;28;20100;-36
2024/01/20 00:31:20;;;;;;;40.00;20.95;;;-0.40;99.90;;;;;;5099952;28;20043;-34
2024/01/20 00:33:46;;;;;;;42.65;22.15;;;-0.40;99.90;;;;;;5099982;28;20031;-38
2024/01/20 00:36:12;;;;;;;44.13;22.83;;;-0.40;99.90;;;;;;5100546;28;20023;-35
2024/01/20 00:38:39;;;;;;;42.22;22.90;;;-0.40;99.90;;;;;;5100191;28;20436;-35
2024/01/20 00:41:06;;;;;;;52.33;23.25;;;-0.40;99.90;;;;;;5100888;28;20552;-34
2024/01/20 00:43:32;;;;;;;46.20;22.50;;;-0.40;99.90;;;;;;5100435;28;20034;-34
2024/01/20 00:45:58;;;;;;;40.80;21.45;;;-0.40;99.90;;;;;;5099774;28;20027;-36
2024/01/20 00:48:24;;;;;;;43.92;23.17;;;-0.30;99.90;;;;;;5100318;28;20039;-37
2024/01/20 00:50:51;;;;;;;38.30;21.23;;;-0.40;99.90;;;;;;5100189;28;20027;-33
2024/01/20 00:53:16;;;;;;;40.28;20.98;;;-0.30;99.90;;;;;;5100407;28;20027;-35
2024/01/20 00:55:45;;;;;;;37.28;19.60;;;-0.30;99.90;;;;;;5099989;28;20022;-37
2024/01/20 00:58:11;;;;;;;34.03;18.08;;;-0.30;99.90;;;;;;5099532;28;20044;-35
2024/01/20 01:00:37;;;;;;;43.38;20.92;;;-0.20;99.90;;;;;;5099831;28;20016;-35
2024/01/20 01:03:03;;;;;;;39.13;19.23;;;-0.20;99.90;;;;;;5099991;28;20034;-37
2024/01/20 01:05:29;;;;;;;42.13;21.17;;;-0.20;99.90;;;;;;5097217;28;20028;-37
2024/01/20 01:07:57;;;;;;;41.13;20.02;;;-0.10;99.90;;;;;;5099043;28;20028;-37
2024/01/20 01:10:22;;;;;;;43.08;20.75;;;-0.10;99.90;;;;;;5097827;28;20620;-36
2024/01/20 01:12:49;;;;;;;44.00;21.92;;;-0.10;99.90;;;;;;5097759;28;20114;-34
2024/01/20 01:15:15;;;;;;;45.15;22.40;;;0.00;99.90;;;;;;5098149;28;20471;-37
2024/01/20 01:17:40;;;;;;;41.67;21.10;;;0.00;99.90;;;;;;5098176;28;20055;-35
2024/01/20 01:20:08;;;;;;;45.40;22.20;;;0.00;99.90;;;;;;5098903;28;20130;-33
2024/01/20 01:22:34;;;;;;;48.90;23.52;;;0.00;99.90;;;;;;5099364;28;20138;-37
2024/01/20 01:25:00;;;;;;;39.83;20.85;;;0.00;99.90;;;;;;5100177;28;20111;-36
2024/01/20 01:27:25;;;;;;;47.72;22.60;;;0.00;99.90;;;;;;5099629;28;20027;-34
2024/01/20 01:29:51;;;;;;;48.42;23.52;;;0.00;99.90;;;;;;5099991;28;20049;-36
2024/01/20 01:32:19;;;;;;;47.40;23.67;;;0.00;99.90;;;;;;5099372;28;20079;-34
2024/01/20 01:34:45;;;;;;;45.17;21.92;;;0.10;99.90;;;;;;5099124;28;20024;-34
2024/01/20 01:37:11;;;;;;;39.70;20.67;;;0.10;99.90;;;;;;5099766;28;20035;-34
2024/01/20 01:39:36;;;;;;;42.10;21.35;;;0.10;99.90;;;;;;5099482;28;20069;-36
2024/01/20 01:42:02;;;;;;;40.90;21.25;;;0.10;99.90;;;;;;5098811;28;20363;-35
2024/01/20 01:44:27;;;;;;;41.17;21.60;;;0.10;99.90;;;;;;5100127;28;20028;-35
2024/01/20 01:46:53;;;;;;;46.40;23.60;;;0.10;99.90;;;;;;5098604;28;20764;-34
2024/01/20 01:49:20;;;;;;;45.90;22.42;;;0.10;99.90;;;;;;5100098;28;20113;-32
2024/01/20 01:51:47;;;;;;;45.22;22.02;;;0.10;99.90;;;;;;5099756;28;20024;-35
2024/01/20 01:54:13;;;;;;;44.67;22.23;;;0.10;99.90;;;;;;5078855;28;20131;-37
2024/01/20 01:56:41;;;;;;;44.88;22.58;;;0.20;99.90;;;;;;5093356;28;20023;-37
2024/01/20 01:59:07;;;;;;;48.60;23.77;;;0.20;99.90;;;;;;5099080;28;20043;-36
2024/01/20 02:01:33;;;;;;;49.20;23.45;;;0.20;99.90;;;;;;5098302;28;20034;-35
2024/01/20 02:03:59;;;;;;;46.40;22.15;;;0.20;99.90;;;;;;5099319;28;20442;-37
2024/01/20 02:06:25;;;;;;;46.05;22.88;;;0.20;99.90;;;;;;5099070;28;20132;-36
2024/01/20 02:08:50;;;;;;;42.13;22.25;;;0.20;99.90;;;;;;5101774;28;20490;-37
2024/01/20 02:11:17;;;;;;;38.67;20.10;;;0.20;99.90;;;;;;5102648;28;20441;-33
2024/01/20 02:13:42;;;;;;;40.10;20.02;;;0.20;99.90;;;;;;5103813;28;20024;-35
2024/01/20 02:16:08;;;;;;;39.38;19.48;;;0.20;99.90;;;;;;5102530;28;20121;-34
2024/01/20 02:18:33;;;;;;;37.95;18.15;;;0.20;99.90;;;;;;5103001;28;20073;-37
2024/01/20 02:20:59;;;;;;;36.15;19.27;;;0.10;99.90;;;;;;5103544;28;20028;-37
2024/01/20 02:23:25;;;;;;;37.35;20.17;;;0.10;99.90;;;;;;5102505;28;20027;-36
2024/01/20 02:25:50;;;;;;;39.97;19.60;;;0.10;99.90;;;;;;5103296;28;20057;-33
2024/01/20 02:28:16;;;;;;;40.90;20.75;;;0.10;99.90;;;;;;5102647;28;20038;-36
2024/01/20 02:30:43;;;;;;;46.10;21.42;;;0.10;99.90;;;;;;5102628;28;20135;-32
2024/01/20 02:33:08;;;;;;;37.20;19.45;;;0.10;99.90;;;;;;5102989;28;20027;-32
2024/01/20 02:35:34;;;;;;;37.22;20.40;;;0.10;99.90;;;;;;5102422;28;20088;-34
2024/01/20 02:38:01;;;;;;;36.42;18.65;;;0.00;99.90;;;;;;5102169;28;20030;-35
2024/01/20 02:40:30;;;;;;;37.78;19.05;;;0.00;99.90;;;;;;5102987;28;20054;-34
2024/01/20 02:42:55;;;;;;;36.67;18.05;;;0.00;99.90;;;;;;5102381;28;20023;-36
2024/01/20 02:45:21;;;;;;;39.20;19.05;;;0.00;99.90;;;;;;5101959;28;20027;-33
2024/01/20 02:47:47;;;;;;;33.53;18.50;;;0.00;99.90;;;;;;5102345;28;20015;-37
2024/01/20 02:50:12;;;;;;;35.22;17.70;;;-0.10;99.90;;;;;;5102223;28;20102;-33
2024/01/20 02:52:38;;;;;;;32.42;16.70;;;-0.10;99.90;;;;;;5101629;28;20027;-31
2024/01/20 02:55:04;;;;;;;35.83;18.40;;;-0.10;99.90;;;;;;5102483;28;20043;-33
2024/01/20 02:57:30;;;;;;;30.67;15.95;;;-0.10;99.90;;;;;;5101873;28;20559;-37
2024/01/20 02:59:55;;;;;;;29.17;15.38;;;-0.10;99.90;;;;;;5101907;28;20811;-34
2024/01/20 03:02:24;;;;;;;30.48;15.55;;;-0.10;99.90;;;;;;5100320;28;20085;-33
2024/01/20 03:04:49;;;;;;;31.17;16.40;;;-0.10;99.90;;;;;;5097659;28;20032;-38
2024/01/20 03:07:15;;;;;;;32.55;16.08;;;-0.20;99.90;;;;;;5102602;28;20031;-34
2024/01/20 03:09:41;;;;;;;25.38;14.35;;;-0.20;99.90;;;;;;5101750;28;20398;-36
2024/01/20 03:12:08;;;;;;;28.90;14.15;;;-0.20;99.90;;;;;;5102030;28;20049;-35
2024/01/20 03:14:34;;;;;;;28.70;15.20;;;-0.30;99.90;;;;;;5102137;28;20027;-31
2024/01/20 03:17:00;;;;;;;29.35;15.93;;;-0.30;99.90;;;;;;5102227;28;20027;-31
2024/01/20 03:19:26;;;;;;;31.20;15.27;;;-0.30;99.90;;;;;;5100891;28;20040;-32
2024/01/20 03:21:51;;;;;;;27.27;14.50;;;-0.40;99.90;;;;;;5102734;28;20379;-34
2024/01/20 03:24:18;;;;;;;27.17;13.73;;;-0.40;99.90;;;;;;5101651;28;20150;-32
2024/01/20 03:26:45;;;;;;;30.02;14.73;;;-0.40;99.90;;;;;;5101052;28;20036;-33
2024/01/20 03:29:11;;;;;;;27.55;14.18;;;-0.40;99.90;;;;;;5102000;28;20154;-35
2024/01/20 03:31:37;;;;;;;30.40;15.40;;;-0.40;99.90;;;;;;5101791;28;20019;-34
2024/01/20 03:34:02;;;;;;;29.60;16.23;;;-0.40;99.90;;;;;;5101055;28;20030;-31
2024/01/20 03:36:28;;;;;;;34.83;17.38;;;-0.50;99.90;;;;;;5101383;28;20130;-34
2024/01/20 03:38:53;;;;;;;36.67;16.80;;;-0.50;99.90;;;;;;5101624;28;20038;-34
2024/01/20 03:41:19;;;;;;;36.72;17.27;;;-0.50;99.90;;;;;;5100626;28;20024;-33
2024/01/20 03:43:44;;;;;;;36.72;17.30;;;-0.50;99.90;;;;;;5101120;28;20417;-35
2024/01/20 03:46:10;;;;;;;35.65;17.13;;;-0.50;99.90;;;;;;5101029;28;20024;-34
2024/01/20 03:48:35;;;;;;;37.47;17.10;;;-0.60;99.90;;;;;;5100941;28;20106;-32
2024/01/20 03:51:02;;;;;;;30.45;15.15;;;-0.60;99.90;;;;;;5101022;28;20043;-32
2024/01/20 03:53:28;;;;;;;32.53;14.85;;;-0.60;99.90;;;;;;5101561;28;20032;-33
2024/01/20 03:55:54;;;;;;;29.10;14.27;;;-0.60;99.90;;;;;;5100918;28;20497;-36
2024/01/20 03:58:19;;;;;;;31.08;15.85;;;-0.60;99.90;;;;;;5101734;28;20035;-34
2024/01/20 04:00:45;;;;;;;29.17;14.10;;;-0.60;99.90;;;;;;5100314;28;20071;-36
2024/01/20 04:03:11;;;;;;;34.90;16.75;;;-0.70;99.90;;;;;;5101083;28;20028;-35
2024/01/20 04:05:39;;;;;;;33.13;15.10;;;-0.70;99.90;;;;;;5101046;28;20461;-34
2024/01/20 04:08:05;;;;;;;32.38;14.95;;;-0.70;99.90;;;;;;5100724;28;20023;-31
2024/01/20 04:10:30;;;;;;;30.98;15.93;;;-0.70;99.90;;;;;;5101053;28;20112;-34
2024/01/20 04:12:56;;;;;;;33.03;15.88;;;-0.70;99.90;;;;;;5100749;28;20135;-34
2024/01/20 04:15:22;;;;;;;29.40;14.90;;;-0.70;99.90;;;;;;5099953;28;20031;-33
2024/01/20 04:17:48;;;;;;;34.50;15.95;;;-0.70;99.90;;;;;;5101171;28;20035;-36
2024/01/20 04:20:13;;;;;;;31.38;14.68;;;-0.70;99.90;;;;;;5100640;28;20045;-36
2024/01/20 04:22:39;;;;;;;31.80;15.23;;;-0.60;99.90;;;;;;5099940;28;20102;-32
2024/01/20 04:25:05;;;;;;;28.67;14.48;;;-0.60;99.90;;;;;;5100694;28;20110;-31
2024/01/20 04:27:30;;;;;;;27.35;13.57;;;-0.60;99.90;;;;;;5101268;28;20110;-33
2024/01/20 04:29:56;;;;;;;33.42;15.68;;;-0.60;99.90;;;;;;5099136;28;20822;-35
2024/01/20 04:32:21;;;;;;;28.17;14.00;;;-0.60;99.90;;;;;;5099725;28;20055;-34
2024/01/20 04:34:47;;;;;;;26.33;13.27;;;-0.60;99.90;;;;;;5100076;28;20034;-34
2024/01/20 04:37:13;;;;;;;26.35;13.40;;;-0.60;99.90;;;;;;5099581;28;20062;-33
2024/01/20 04:39:38;;;;;;;27.00;12.75;;;-0.60;99.90;;;;;;5099982;28;20035;-35
2024/01/20 04:42:04;;;;;;;31.65;14.68;;;-0.60;99.90;;;;;;5099878;28;20183;-38
2024/01/20 04:44:30;;;;;;;31.38;14.57;;;-0.60;99.90;;;;;;5100093;28;20074;-31
2024/01/20 04:46:55;;;;;;;28.67;14.30;;;-0.60;99.90;;;;;;5100454;28;20019;-34
2024/01/20 04:49:21;;;;;;;27.40;14.25;;;-0.60;99.90;;;;;;5100539;28;20081;-35
2024/01/20 04:51:47;;;;;;;31.50;15.25;;;-0.60;99.90;;;;;;5100432;28;20115;-32
2024/01/20 04:54:13;;;;;;;31.65;16.58;;;-0.60;99.90;;;;;;5101229;28;20027;-37
2024/01/20 04:56:38;;;;;;;29.88;15.20;;;-0.60;99.90;;;;;;5100555;28;20534;-35
2024/01/20 04:59:04;;;;;;;29.55;14.18;;;-0.60;99.90;;;;;;5099675;28;20446;-36
2024/01/20 05:01:29;;;;;;;25.27;13.63;;;-0.60;99.90;;;;;;5099443;28;20024;-40
2024/01/20 05:03:55;;;;;;;32.50;14.75;;;-0.60;99.90;;;;;;5099506;28;20023;-38
2024/01/20 05:06:20;;;;;;;29.88;14.30;;;-0.60;99.90;;;;;;5100370;28;20092;-33
2024/01/20 05:08:46;;;;;;;29.23;14.93;;;-0.60;99.90;;;;;;5100282;28;20081;-34
2024/01/20 05:11:12;;;;;;;26.75;12.88;;;-0.70;99.90;;;;;;5099194;28;20112;-36
2024/01/20 05:13:37;;;;;;;30.27;14.75;;;-0.70;99.90;;;;;;5099175;28;20031;-33
2024/01/20 05:16:03;;;;;;;29.08;14.25;;;-0.70;99.90;;;;;;5100210;28;20046;-35
2024/01/20 05:18:29;;;;;;;28.00;13.43;;;-0.70;99.90;;;;;;5097826;28;20039;-35
2024/01/20 05:20:54;;;;;;;26.67;14.10;;;-0.70;99.90;;;;;;5098196;28;20028;-32
2024/01/20 05:23:20;;;;;;;24.40;12.80;;;-0.80;99.90;;;;;;5098402;28;20032;-35
2024/01/20 05:25:45;;;;;;;28.60;14.77;;;-0.80;99.90;;;;;;5098021;28;20023;-33
2024/01/20 05:28:11;;;;;;;24.25;13.07;;;-0.80;99.90;;;;;;5097887;28;20119;-34
2024/01/20 05:30:37;;;;;;;29.65;13.85;;;-0.80;99.90;;;;;;5098227;28;20058;-37
2024/01/20 05:33:02;;;;;;;27.95;14.23;;;-0.70;99.90;;;;;;5097820;28;20115;-34
2024/01/20 05:35:28;;;;;;;25.67;13.70;;;-0.80;99.90;;;;;;5100117;28;20086;-32
2024/01/20 05:37:53;;;;;;;29.48;15.27;;;-0.80;99.90;;;;;;5099426;28;20122;-33
2024/01/20 05:40:19;;;;;;;30.60;14.85;;;-0.70;99.90;;;;;;5099018;28;20039;-34
2024/01/20 05:42:44;;;;;;;30.05;14.82;;;-0.80;99.90;;;;;;5102943;28;20062;-37
2024/01/20 05:45:10;;;;;;;27.77;14.10;;;-0.70;99.90;;;;;;5103777;28;20892;-35
2024/01/20 05:47:36;;;;;;;27.08;13.70;;;-0.80;99.90;;;;;;5103863;28;20463;-33
2024/01/20 05:50:06;;;;;;;27.65;13.00;;;-0.80;99.90;;;;;;5103328;28;20800;-42
2024/01/20 05:52:31;;;;;;;23.52;12.75;;;-0.70;99.90;;;;;;5104149;28;20126;-35
2024/01/20 05:54:57;;;;;;;30.48;13.85;;;-0.70;99.90;;;;;;5102917;28;20071;-36
2024/01/20 05:57:23;;;;;;;25.98;13.25;;;-0.70;99.90;;;;;;5104386;28;20032;-35
2024/01/20 05:59:49;;;;;;;27.10;14.00;;;-0.70;99.90;;;;;;5103968;28;20043;-36
2024/01/20 06:02:15;;;;;;;25.98;13.40;;;-0.70;99.90;;;;;;5102501;28;20035;-33
2024/01/20 06:04:41;;;;;;;27.70;14.63;;;-0.70;99.90;;;;;;5104486;28;20776;-33
2024/01/20 06:07:06;;;;;;;26.77;13.45;;;-0.70;99.90;;;;;;5102778;28;20451;-35
2024/01/20 06:09:32;;;;;;;28.45;14.02;;;-0.70;99.90;;;;;;5102371;28;20084;-36
2024/01/20 06:11:57;;;;;;;25.25;12.43;;;-0.70;99.90;;;;;;5103443;28;20829;-37
2024/01/20 06:14:23;;;;;;;25.75;12.88;;;-0.70;99.90;;;;;;5102184;28;20031;-31
2024/01/20 06:16:49;;;;;;;25.90;12.88;;;-0.70;99.90;;;;;;5103432;28;20023;-31
2024/01/20 06:19:14;;;;;;;27.40;14.70;;;-0.70;99.90;;;;;;5103965;28;20039;-33
2024/01/20 06:21:40;;;;;;;27.58;13.60;;;-0.70;99.90;;;;;;5103215;28;20031;-33
2024/01/20 06:24:06;;;;;;;21.95;12.23;;;-0.70;99.90;;;;;;5102756;28;20051;-31
2024/01/20 06:26:32;;;;;;;24.50;13.35;;;-0.70;99.90;;;;;;5102591;28;20047;-36
2024/01/20 06:28:58;;;;;;;23.33;12.05;;;-0.60;99.90;;;;;;5102183;28;20102;-36
2024/01/20 06:31:25;;;;;;;26.67;13.38;;;-0.60;99.90;;;;;;5102497;28;20072;-31
2024/01/20 06:33:52;;;;;;;24.27;13.20;;;-0.60;99.90;;;;;;5103209;28;20118;-35
2024/01/20 06:36:18;;;;;;;24.35;13.43;;;-0.70;99.90;;;;;;5102048;28;20028;-32
2024/01/20 06:38:44;;;;;;;26.15;13.45;;;-0.70;99.90;;;;;;5102441;28;20023;-31
2024/01/20 06:41:10;;;;;;;31.80;16.38;;;-0.70;99.90;;;;;;5102316;28;20019;-36
2024/01/20 06:43:35;;;;;;;31.27;15.90;;;-0.70;99.90;;;;;;5101902;28;20761;-34
2024/01/20 06:46:01;;;;;;;30.67;15.73;;;-0.70;99.90;;;;;;5102354;28;20484;-36
2024/01/20 06:48:32;;;;;;;29.40;15.55;;;-0.70;99.90;;;;;;5103399;28;20080;-34
2024/01/20 06:50:59;;;;;;;30.73;15.80;;;-0.70;99.90;;;;;;5101608;28;20062;-36
2024/01/20 06:53:29;;;;;;;29.35;14.63;;;-0.70;99.90;;;;;;5101292;28;20023;-33
2024/01/20 06:55:55;;;;;;;30.42;15.05;;;-0.60;99.90;;;;;;5102095;28;20106;-34
2024/01/20 06:58:21;;;;;;;27.65;14.70;;;-0.60;99.90;;;;;;5101839;28;20039;-34
2024/01/20 07:00:46;;;;;;;28.38;14.30;;;-0.60;99.90;;;;;;5102251;28;20016;-35
2024/01/20 07:03:12;;;;;;;28.90;14.88;;;-0.60;99.90;;;;;;5101710;28;20020;-36
2024/01/20 07:05:37;;;;;;;30.17;15.00;;;-0.70;99.90;;;;;;5101432;28;20019;-34
2024/01/20 07:08:04;;;;;;;26.30;14.27;;;-0.70;99.90;;;;;;5101512;28;20047;-37
2024/01/20 07:10:30;;;;;;;27.20;13.15;;;-0.60;99.90;;;;;;5100922;28;20120;-37
2024/01/20 07:12:55;;;;;;;25.60;13.85;;;-0.60;99.90;;;;;;5101936;28;20023;-37
2024/01/20 07:15:21;;;;;;;28.67;14.75;;;-0.70;99.90;;;;;;5101392;28;20343;-35
2024/01/20 07:17:47;;;;;;;24.88;13.18;;;-0.70;99.90;;;;;;5101480;28;20032;-37
2024/01/20 07:20:13;;;;;;;25.73;12.18;;;-0.70;99.90;;;;;;5101193;28;20921;-37
2024/01/20 07:22:38;;;;;;;28.33;14.32;;;-0.70;99.90;;;;;;5101088;28;20032;-38
2024/01/20 07:25:05;;;;;;;25.00;13.13;;;-0.70;99.90;;;;;;5101355;28;20500;-34
2024/01/20 07:27:30;;;;;;;28.65;14.18;;;-0.70;99.90;;;;;;5101190;28;20035;-34
2024/01/20 07:29:56;;;;;;;24.38;12.48;;;-0.70;99.90;;;;;;5101666;28;20034;-37
2024/01/20 07:32:21;;;;;;;28.92;13.77;;;-0.60;99.90;;;;;;5101475;28;20356;-38
2024/01/20 07:34:47;;;;;;;27.35;14.82;;;-0.60;99.90;;;;;;5102159;28;20031;-36
2024/01/20 07:37:13;;;;;;;23.67;13.43;;;-0.70;99.90;;;;;;5101581;28;20038;-37
2024/01/20 07:39:38;;;;;;;27.38;14.40;;;-0.70;99.90;;;;;;5100197;28;20035;-34
2024/01/20 07:42:04;;;;;;;26.77;13.75;;;-0.70;99.90;;;;;;5088838;28;20016;-39
2024/01/20 07:44:30;;;;;;;27.27;14.75;;;-0.70;99.90;;;;;;5101031;28;20057;-35
2024/01/20 07:46:56;;;;;;;30.65;14.73;;;-0.70;99.90;;;;;;5100553;28;20689;-31
2024/01/20 07:49:22;;;;;;;29.90;15.15;;;-0.70;99.90;;;;;;5101381;28;20138;-36
2024/01/20 07:51:47;;;;;;;27.58;13.70;;;-0.70;99.90;;;;;;5101585;28;20030;-36
2024/01/20 07:54:16;;;;;;;27.35;14.00;;;-0.60;99.90;;;;;;5101128;28;20458;-37
2024/01/20 07:56:41;;;;;;;26.20;13.40;;;-0.60;99.90;;;;;;5101692;28;20034;-33
2024/01/20 07:59:07;;;;;;;23.13;11.98;;;-0.50;99.90;;;;;;5101044;28;20043;-31
2024/01/20 08:01:33;;;;;;;25.02;13.82;;;-0.50;99.90;;;;;;5100631;28;20024;-36
2024/01/20 08:03:58;;;;;;;25.17;14.40;;;-0.40;99.90;;;;;;5099818;28;20051;-33
2024/01/20 08:06:24;;;;;;;25.83;13.07;;;-0.40;99.90;;;;;;5101027;28;20028;-37
2024/01/20 08:08:50;;;;;;;23.83;11.55;;;-0.30;99.90;;;;;;5100851;28;20076;-36
2024/01/20 08:11:15;;;;;;;22.63;12.65;;;-0.20;99.90;;;;;;5098831;28;20752;-33
2024/01/20 08:13:41;;;;;;;25.67;13.65;;;-0.20;99.90;;;;;;5100127;28;20024;-36
2024/01/20 08:16:07;;;;;;;25.80;13.98;;;-0.10;99.90;;;;;;5099405;28;20032;-36
2024/01/20 08:18:32;;;;;;;26.83;14.45;;;-0.10;99.90;;;;;;5100428;28;20024;-33
2024/01/20 08:20:58;;;;;;;27.40;13.93;;;-0.10;99.90;;;;;;5097972;28;20031;-36
2024/01/20 08:23:24;;;;;;;24.98;13.77;;;0.00;99.90;;;;;;5099098;28;20627;-35
2024/01/20 08:25:50;;;;;;;26.77;14.45;;;0.00;99.90;;;;;;5099609;28;20419;-33
2024/01/20 08:28:15;;;;;;;27.88;14.25;;;0.10;99.90;;;;;;5098605;28;20027;-34
2024/01/20 08:30:41;;;;;;;27.10;14.10;;;0.10;99.90;;;;;;5099816;28;20024;-35
2024/01/20 08:33:06;;;;;;;22.83;12.68;;;0.20;99.90;;;;;;5098312;28;20041;-33
2024/01/20 08:35:32;;;;;;;22.45;12.38;;;0.30;99.90;;;;;;5097002;27;20023;-32
2024/01/20 08:37:58;;;;;;;23.20;12.73;;;0.30;99.90;;;;;;5098732;28;20142;-35
2024/01/20 08:40:24;;;;;;;24.25;12.95;;;0.40;99.90;;;;;;5097831;28;20031;-32
2024/01/20 08:42:49;;;;;;;23.23;12.82;;;0.40;99.90;;;;;;5098431;28;20061;-35
2024/01/20 08:45:15;;;;;;;25.25;12.88;;;0.50;99.90;;;;;;5098061;28;20035;-33
2024/01/20 08:47:41;;;;;;;22.15;11.73;;;0.60;99.90;;;;;;5099819;28;20031;-32
2024/01/20 08:50:07;;;;;;;25.20;14.13;;;0.60;99.90;;;;;;5098451;28;20090;-37
2024/01/20 08:52:33;;;;;;;23.30;13.77;;;0.70;99.90;;;;;;5099470;28;20107;-32
2024/01/20 08:54:58;;;;;;;23.95;14.13;;;0.70;99.90;;;;;;5098355;28;20019;-36
2024/01/20 08:57:29;;;;;;;27.02;13.60;;;0.80;99.90;;;;;;5096970;28;20027;-34
2024/01/20 08:59:55;;;;;;;26.73;14.60;;;0.70;99.90;;;;;;5097294;28;20962;-34
2024/01/20 09:02:21;;;;;;;25.13;14.25;;;0.70;99.90;;;;;;5097405;28;20023;-31
2024/01/20 09:04:46;;;;;;;22.20;12.25;;;0.70;99.90;;;;;;5096503;28;20027;-32
2024/01/20 09:07:12;;;;;;;25.55;13.35;;;0.80;99.90;;;;;;5097976;28;20115;-34
2024/01/20 09:09:38;;;;;;;22.65;12.85;;;0.80;99.90;;;;;;5097402;28;20019;-33
2024/01/20 09:12:04;;;;;;;20.98;11.35;;;0.80;99.90;;;;;;5099303;28;20050;-37
2024/01/20 09:14:29;;;;;;;23.63;13.23;;;0.90;99.90;;;;;;5100071;28;20055;-34
2024/01/20 09:16:55;;;;;;;21.60;12.10;;;0.90;99.90;;;;;;5098840;28;20137;-35
2024/01/20 09:19:20;;;;;;;23.00;13.00;;;0.90;99.90;;;;;;5098731;28;20044;-35
2024/01/20 09:21:46;;;;;;;23.65;12.75;;;0.90;99.90;;;;;;5100165;28;20063;-33
2024/01/20 09:24:12;;;;;;;20.98;12.27;;;0.90;99.90;;;;;;5099140;28;20027;-35
2024/01/20 09:26:37;;;;;;;27.55;15.43;;;0.90;99.90;;;;;;5099137;28;20619;-34
2024/01/20 09:29:03;;;;;;;24.35;14.20;;;0.90;99.90;;;;;;5098323;28;20115;-34
2024/01/20 09:31:29;;;;;;;25.23;14.50;;;0.90;99.90;;;;;;5099236;28;20049;-34
2024/01/20 09:33:54;;;;;;;25.50;14.05;;;0.90;99.90;;;;;;5099468;28;20028;-31
2024/01/20 09:36:20;;;;;;;25.80;16.05;;;0.90;99.90;;;;;;5099305;28;20502;-34
2024/01/20 09:38:46;;;;;;;25.23;14.10;;;0.90;99.90;;;;;;5098991;28;20043;-32
2024/01/20 09:41:12;;;;;;;25.02;14.88;;;0.90;99.90;;;;;;5099840;28;20039;-35
2024/01/20 09:43:39;;;;;;;26.00;14.10;;;1.00;99.90;;;;;;5099681;28;20020;-34
2024/01/20 09:46:04;;;;;;;23.25;14.70;;;1.00;99.90;;;;;;5099127;28;20039;-36
2024/01/20 09:48:30;;;;;;;24.45;13.45;;;1.00;99.90;;;;;;5096020;28;20031;-36
2024/01/20 09:50:57;;;;;;;24.67;14.27;;;1.00;99.90;;;;;;5078430;28;20035;-35
2024/01/20 09:53:24;;;;;;;29.23;15.88;;;1.10;99.90;;;;;;5097888;28;20096;-37
2024/01/20 09:55:50;;;;;;;27.88;15.85;;;1.10;99.90;;;;;;5099339;28;20197;-35
2024/01/20 09:58:17;;;;;;;25.38;15.00;;;1.10;99.90;;;;;;5098577;28;20039;-33
2024/01/20 10:00:43;;;;;;;22.83;14.23;;;1.10;99.90;;;;;;5098948;28;20051;-38
2024/01/20 10:03:10;;;;;;;25.90;14.02;;;1.20;99.90;;;;;;5097673;28;20082;-34
2024/01/20 10:05:37;;;;;;;25.15;14.20;;;1.20;99.90;;;;;;5097689;28;20055;-34
2024/01/20 10:08:04;;;;;;;24.15;13.38;;;1.30;99.90;;;;;;5097814;28;20028;-34
2024/01/20 10:10:31;;;;;;;23.92;14.65;;;1.30;99.90;;;;;;5098365;28;20109;-33
2024/01/20 10:12:57;;;;;;;23.58;14.38;;;1.30;99.90;;;;;;5099424;28;20035;-36
2024/01/20 10:15:29;;;;;;;20.33;12.23;;;1.30;99.90;;;;;;5098538;28;20019;-37
2024/01/20 10:17:55;;;;;;;24.40;14.57;;;1.30;99.90;;;;;;5099138;28;20024;-37
2024/01/20 10:20:22;;;;;;;27.83;15.30;;;1.40;99.90;;;;;;5098404;28;20122;-37
2024/01/20 10:22:49;;;;;;;31.15;15.15;;;1.50;99.90;;;;;;5099106;28;20024;-36
2024/01/20 10:25:19;;;;;;;28.42;17.73;;;1.40;99.90;;;;;;5098688;28;20831;-38
2024/01/20 10:27:48;;;;;;;28.48;16.58;;;1.40;99.90;;;;;;5098206;28;20027;-37
2024/01/20 10:30:21;;;;;;;26.83;16.08;;;1.40;99.90;;;;;;5102365;28;20369;-36
2024/01/20 10:32:51;;;;;;;26.95;15.43;;;1.50;99.90;;;;;;5102933;28;20176;-35
2024/01/20 10:35:17;;;;;;;24.17;14.75;;;1.40;99.90;;;;;;5101750;28;20597;-34
2024/01/20 10:37:44;;;;;;;24.58;14.77;;;1.50;99.90;;;;;;5102825;28;20031;-34
2024/01/20 10:40:15;;;;;;;25.30;14.77;;;1.40;99.90;;;;;;5100477;28;20035;-35
2024/01/20 10:42:45;;;;;;;25.02;15.15;;;1.50;99.90;;;;;;5101563;28;20055;-37
2024/01/20 10:45:18;;;;;;;26.90;15.32;;;1.50;99.90;;;;;;5098806;28;20047;-36
2024/01/20 10:48:02;;;;;;;25.17;15.18;;;1.50;99.90;;;;;;5103368;28;20034;-36
2024/01/20 10:50:28;;;;;;;27.58;17.27;;;1.50;99.90;;;;;;5098080;28;20760;-34
2024/01/20 10:52:55;;;;;;;24.50;14.98;;;1.50;99.90;;;;;;5102300;28;20035;-39
2024/01/20 10:55:23;;;;;;;22.92;14.05;;;1.50;99.90;;;;;;5102375;28;20038;-36
2024/01/20 10:57:50;;;;;;;22.20;13.88;;;1.50;99.90;;;;;;5102012;28;20034;-35
2024/01/20 11:00:17;;;;;;;25.92;15.07;;;1.50;99.90;;;;;;5101987;28;20027;-32
2024/01/20 11:02:44;;;;;;;21.88;13.95;;;1.60;99.90;;;;;;5102230;28;20023;-35
2024/01/20 11:05:22;;;;;;;21.85;13.70;;;1.60;99.90;;;;;;5102302;28;20688;-34
2024/01/20 11:08:05;;;;;;;31.17;17.63;;;1.60;99.90;;;;;;5083363;28;20040;-30
2024/01/20 11:10:41;;;;;;;25.95;15.82;;;1.60;99.90;;;;;;5097122;28;20047;-36
2024/01/20 11:13:11;;;;;;;31.73;17.33;;;1.60;99.90;;;;;;5102778;28;20073;-34
2024/01/20 11:15:38;;;;;;;27.15;16.17;;;1.50;99.90;;;;;;5101780;28;20032;-35
2024/01/20 11:18:16;;;;;;;29.85;16.80;;;1.50;99.90;;;;;;5101497;28;20039;-35
2024/01/20 11:20:59;;;;;;;29.35;16.98;;;1.60;99.90;;;;;;5101950;28;20028;-38
2024/01/20 11:23:26;;;;;;;26.25;15.38;;;1.60;99.90;;;;;;5081789;28;20059;-36
2024/01/20 11:25:52;;;;;;;20.60;13.77;;;1.60;99.90;;;;;;5096765;28;20032;-36
2024/01/20 11:28:32;;;;;;;23.17;13.60;;;1.60;99.90;;;;;;5102051;28;20035;-37
2024/01/20 11:30:58;;;;;;;27.05;14.32;;;1.60;99.90;;;;;;5100851;28;20423;-35
2024/01/20 11:33:27;;;;;;;26.38;15.18;;;1.70;99.90;;;;;;5101057;28;20489;-35
2024/01/20 11:35:53;;;;;;;30.20;17.25;;;1.70;99.90;;;;;;5100208;28;20117;-37
2024/01/20 11:38:19;;;;;;;27.80;16.83;;;1.70;99.90;;;;;;5101016;28;20764;-32
2024/01/20 11:40:59;;;;;;;27.92;16.45;;;1.70;99.90;;;;;;5101710;28;20455;-36
2024/01/20 11:43:26;;;;;;;26.40;15.73;;;1.70;99.90;;;;;;5101076;28;20027;-38
2024/01/20 11:45:56;;;;;;;25.55;14.93;;;1.80;99.90;;;;;;5099953;28;20130;-35
2024/01/20 11:48:22;;;;;;;21.05;14.07;;;1.90;99.90;;;;;;5101981;28;20106;-38
2024/01/20 11:50:49;;;;;;;24.55;15.10;;;1.90;99.90;;;;;;5101343;28;20026;-37
2024/01/20 11:53:15;;;;;;;25.17;15.02;;;1.90;99.90;;;;;;5100090;28;20086;-32
2024/01/20 11:55:55;;;;;;;23.95;14.80;;;1.90;99.90;;;;;;5101346;28;20030;-30
2024/01/20 11:58:21;;;;;;;25.90;15.63;;;2.00;99.90;;;;;;5100682;28;20763;-33
2024/01/20 12:00:49;;;;;;;23.35;14.50;;;2.00;99.90;;;;;;5100605;28;20027;-38
2024/01/20 12:03:15;;;;;;;25.42;15.65;;;2.00;99.90;;;;;;5089567;28;20500;-33
2024/01/20 12:05:40;;;;;;;24.05;13.38;;;2.10;99.90;;;;;;5100473;28;20038;-35
2024/01/20 12:08:06;;;;;;;27.52;16.63;;;2.10;99.90;;;;;;5100550;28;20023;-36
2024/01/20 12:10:35;;;;;;;21.60;13.43;;;2.10;99.90;;;;;;5100500;28;20051;-37
2024/01/20 12:13:04;;;;;;;23.30;13.77;;;2.10;99.90;;;;;;5098883;28;20107;-35
2024/01/20 12:15:36;;;;;;;20.00;12.93;;;2.10;99.90;;;;;;5100484;28;20031;-38
2024/01/20 12:18:02;;;;;;;20.50;13.10;;;2.20;99.90;;;;;;5099802;28;20040;-36
2024/01/20 12:20:27;;;;;;;23.90;12.68;;;2.20;99.90;;;;;;5099615;28;20031;-32
2024/01/20 12:22:57;;;;;;;26.27;15.90;;;2.20;99.90;;;;;;5099894;28;20016;-33
2024/01/20 12:25:25;;;;;;;23.15;14.43;;;2.20;99.90;;;;;;5100363;28;20084;-36
2024/01/20 12:27:51;;;;;;;23.02;14.38;;;2.20;99.90;;;;;;5099525;28;20247;-33